Time,TemperatureF,DewpointF,PressureIn,WindDirection,WindDirectionDegrees,WindSpeedMPH,WindSpeedGustMPH,Humidity,HourlyPrecipIn,Conditions,Clouds,dailyrainin,SoftwareType,DateUTC
2013-09-16 00:00:00,64.3,55.5,29.69,SSE,157,3.0,11.0,73,0.00,,---,0.00,VWS V14.01,2013-09-16 07:00:00,
2013-09-16 00:01:00,64.3,58.7,29.80,South,171,2.0,10.0,82,0.00,,---,0.00,VWS V14.01,2013-09-16 07:01:00,
2013-09-16 00:06:00,64.2,58.6,29.80,South,171,4.0,6.0,82,0.00,,---,0.00,VWS V14.01,2013-09-16 07:06:00,
2013-09-16 00:11:00,64.2,58.6,29.80,South,171,3.0,10.0,82,0.00,,---,0.00,VWS V14.01,2013-09-16 07:11:00,
2013-09-16 00:16:00,64.1,58.5,29.81,South,171,2.0,10.0,82,0.00,,---,0.00,VWS V14.01,2013-09-16 07:16:00,
2013-09-16 00:21:00,64.1,58.5,29.81,South,171,0.0,10.0,82,0.00,,---,0.00,VWS V14.01,2013-09-16 07:21:00,
2013-09-16 00:26:00,64.1,58.5,29.81,South,171,1.0,10.0,82,0.00,,---,0.00,VWS V14.01,2013-09-16 07:26:00,
2013-09-16 00:31:00,64.0,58.4,29.81,South,171,2.0,10.0,82,0.00,,---,0.00,VWS V14.01,2013-09-16 07:31:00,
2013-09-16 00:36:00,63.9,58.3,29.81,South,171,3.0,10.0,82,0.00,,---,0.00,VWS V14.01,2013-09-16 07:36:00,
2013-09-16 00:41:00,63.9,58.6,29.81,South,171,2.0,10.0,83,0.00,,---,0.00,VWS V14.01,2013-09-16 07:41:00,
2013-09-16 00:46:00,63.8,58.5,29.81,South,170,8.0,10.0,83,0.00,,---,0.00,VWS V14.01,2013-09-16 07:46:00,
2013-09-16 00:51:00,63.7,58.5,29.81,South,170,2.0,10.0,83,0.00,,---,0.00,VWS V14.01,2013-09-16 07:51:00,
2013-09-16 00:56:00,63.6,58.3,29.81,South,170,2.0,10.0,83,0.00,,---,0.00,VWS V14.01,2013-09-16 07:56:00,
2013-09-16 01:00:00,63.1,55.4,29.70,SSE,157,2.0,11.0,76,0.00,,---,0.00,VWS V14.01,2013-09-16 08:00:00,
2013-09-16 01:01:00,63.6,58.7,29.81,South,170,1.0,10.0,84,0.00,,---,0.00,VWS V14.01,2013-09-16 08:01:00,
2013-09-16 01:06:00,63.5,58.6,29.81,South,170,2.0,5.0,84,0.00,,---,0.00,VWS V14.01,2013-09-16 08:06:00,
2013-09-16 01:11:00,63.5,58.6,29.81,South,170,3.0,5.0,84,0.00,,---,0.00,VWS V14.01,2013-09-16 08:11:00,
2013-09-16 01:16:00,63.4,58.5,29.81,South,170,1.0,5.0,84,0.00,,---,0.00,VWS V14.01,2013-09-16 08:16:00,
2013-09-16 01:21:00,63.3,58.4,29.81,South,170,2.0,6.0,84,0.00,,---,0.00,VWS V14.01,2013-09-16 08:21:00,
2013-09-16 01:26:00,63.2,58.6,29.81,South,170,1.0,6.0,85,0.00,,---,0.00,VWS V14.01,2013-09-16 08:26:00,
2013-09-16 01:31:00,63.1,58.5,29.81,South,170,3.0,9.0,85,0.00,,---,0.00,VWS V14.01,2013-09-16 08:31:00,
2013-09-16 01:35:00,63.1,58.5,29.81,South,170,2.0,9.0,85,0.00,,---,0.00,VWS V14.01,2013-09-16 08:35:00,
2013-09-16 01:40:00,63.0,58.4,29.82,South,170,2.0,9.0,85,0.00,,---,0.00,VWS V14.01,2013-09-16 08:40:00,
2013-09-16 01:45:00,62.9,58.7,29.82,South,170,4.0,9.0,86,0.00,,---,0.00,VWS V14.01,2013-09-16 08:45:00,
2013-09-16 01:50:00,62.9,58.7,29.81,South,170,1.0,9.0,86,0.00,,---,0.00,VWS V14.01,2013-09-16 08:50:00,
2013-09-16 01:55:00,62.8,58.6,29.81,South,170,3.0,9.0,86,0.00,,---,0.00,VWS V14.01,2013-09-16 08:55:00,
2013-09-16 02:00:00,62.7,58.5,29.81,SSE,168,3.0,10.0,86,0.00,,---,0.00,VWS V14.01,2013-09-16 09:00:00,
2013-09-16 02:05:00,62.7,58.8,29.81,SSE,168,1.0,6.0,87,0.00,,---,0.00,VWS V14.01,2013-09-16 09:05:00,
2013-09-16 02:10:00,62.6,58.7,29.81,SSE,168,0.0,9.0,87,0.00,,---,0.00,VWS V14.01,2013-09-16 09:10:00,
2013-09-16 02:15:00,62.6,58.7,29.81,SSE,168,4.0,9.0,87,0.00,,---,0.00,VWS V14.01,2013-09-16 09:15:00,
2013-09-16 02:20:00,62.5,58.6,29.81,SSE,167,5.0,10.0,87,0.00,,---,0.00,VWS V14.01,2013-09-16 09:20:00,
2013-09-16 02:25:00,62.5,58.6,29.81,SSE,167,3.0,10.0,87,0.00,,---,0.00,VWS V14.01,2013-09-16 09:25:00,
2013-09-16 02:30:00,62.5,58.6,29.81,SSE,167,3.0,10.0,87,0.00,,---,0.00,VWS V14.01,2013-09-16 09:30:00,
2013-09-16 02:35:00,62.5,58.6,29.81,SSE,167,4.0,10.0,87,0.00,,---,0.00,VWS V14.01,2013-09-16 09:35:00,
2013-09-16 02:40:00,62.4,58.8,29.81,SSE,167,0.0,10.0,88,0.00,,---,0.00,VWS V14.01,2013-09-16 09:40:00,
2013-09-16 02:45:00,62.4,58.8,29.81,SSE,167,3.0,10.0,88,0.00,,---,0.00,VWS V14.01,2013-09-16 09:45:00,
2013-09-16 02:50:00,62.4,58.8,29.81,SSE,167,3.0,10.0,88,0.00,,---,0.00,VWS V14.01,2013-09-16 09:50:00,
2013-09-16 02:55:00,62.3,58.7,29.81,SSE,166,4.0,10.0,88,0.00,,---,0.00,VWS V14.01,2013-09-16 09:55:00,
2013-09-16 03:00:00,60.5,54.3,29.71,SSE,150,2.0,12.0,80,0.00,,---,0.00,VWS V14.01,2013-09-16 10:00:00,
2013-09-16 03:01:00,62.3,58.7,29.81,SSE,166,7.0,10.0,88,0.00,,---,0.00,VWS V14.01,2013-09-16 10:01:00,
2013-09-16 03:06:00,62.3,58.7,29.82,SSE,165,2.0,9.0,88,0.00,,---,0.00,VWS V14.01,2013-09-16 10:06:00,
2013-09-16 03:11:00,62.2,58.6,29.81,SSE,165,0.0,9.0,88,0.00,,---,0.00,VWS V14.01,2013-09-16 10:11:00,
2013-09-16 03:16:00,62.2,58.6,29.82,SSE,165,5.0,9.0,88,0.00,,---,0.00,VWS V14.01,2013-09-16 10:16:00,
2013-09-16 03:21:00,62.1,58.5,29.82,SSE,165,1.0,9.0,88,0.00,,---,0.00,VWS V14.01,2013-09-16 10:21:00,
2013-09-16 03:26:00,62.1,58.5,29.82,SSE,165,1.0,9.0,88,0.00,,---,0.00,VWS V14.01,2013-09-16 10:26:00,
2013-09-16 03:31:00,62.0,58.4,29.82,SSE,165,3.0,9.0,88,0.00,,---,0.00,VWS V14.01,2013-09-16 10:31:00,
2013-09-16 03:36:00,61.9,58.3,29.82,SSE,165,5.0,9.0,88,0.00,,---,0.00,VWS V14.01,2013-09-16 10:36:00,
2013-09-16 03:41:00,61.8,58.5,29.82,SSE,165,2.0,9.0,89,0.00,,---,0.00,VWS V14.01,2013-09-16 10:41:00,
2013-09-16 03:46:00,61.8,58.5,29.82,SSE,165,6.0,12.0,89,0.00,,---,0.00,VWS V14.01,2013-09-16 10:46:00,
2013-09-16 03:51:00,61.7,58.4,29.82,SSE,165,3.0,12.0,89,0.00,,---,0.00,VWS V14.01,2013-09-16 10:51:00,
2013-09-16 03:56:00,61.7,58.4,29.81,SSE,164,2.0,12.0,89,0.00,,---,0.00,VWS V14.01,2013-09-16 10:56:00,
2013-09-16 04:00:00,59.5,54.0,29.71,SSE,150,3.0,13.0,82,0.00,,---,0.00,VWS V14.01,2013-09-16 11:00:00,
2013-09-16 04:01:00,61.6,58.3,29.81,SSE,164,2.0,12.0,89,0.00,,---,0.00,VWS V14.01,2013-09-16 11:01:00,
2013-09-16 04:06:00,61.5,58.2,29.81,SSE,164,2.0,6.0,89,0.00,,---,0.00,VWS V14.01,2013-09-16 11:06:00,
2013-09-16 04:10:00,61.5,58.2,29.82,SSE,164,5.0,6.0,89,0.00,,---,0.00,VWS V14.01,2013-09-16 11:10:00,
2013-09-16 04:15:00,61.5,58.2,29.81,SSE,164,1.0,6.0,89,0.00,,---,0.00,VWS V14.01,2013-09-16 11:15:00,
2013-09-16 04:20:00,61.4,58.1,29.82,SSE,164,3.0,6.0,89,0.00,,---,0.00,VWS V14.01,2013-09-16 11:20:00,
2013-09-16 04:25:00,61.4,58.1,29.82,SSE,164,2.0,6.0,89,0.00,,---,0.00,VWS V14.01,2013-09-16 11:25:00,
2013-09-16 04:30:00,61.4,58.5,29.82,SSE,164,3.0,7.0,90,0.00,,---,0.00,VWS V14.01,2013-09-16 11:30:00,
2013-09-16 04:35:00,61.3,58.3,29.82,SSE,164,5.0,7.0,90,0.00,,---,0.00,VWS V14.01,2013-09-16 11:35:00,
2013-09-16 04:40:00,61.3,58.3,29.82,SSE,164,6.0,7.0,90,0.00,,---,0.00,VWS V14.01,2013-09-16 11:40:00,
2013-09-16 04:45:00,61.2,58.2,29.82,SSE,164,0.0,9.0,90,0.00,,---,0.00,VWS V14.01,2013-09-16 11:45:00,
2013-09-16 04:50:00,61.2,58.2,29.82,SSE,164,1.0,9.0,90,0.00,,---,0.00,VWS V14.01,2013-09-16 11:50:00,
2013-09-16 04:55:00,61.1,58.2,29.81,SSE,164,2.0,9.0,90,0.00,,---,0.00,VWS V14.01,2013-09-16 11:55:00,
2013-09-16 05:00:00,61.1,58.2,29.82,SSE,164,3.0,9.0,90,0.00,,---,0.00,VWS V14.01,2013-09-16 12:00:00,
2013-09-16 05:05:00,61.1,58.2,29.82,SSE,164,2.0,6.0,90,0.00,,---,0.00,VWS V14.01,2013-09-16 12:05:00,
2013-09-16 05:10:00,61.0,58.0,29.82,SSE,164,3.0,6.0,90,0.00,,---,0.00,VWS V14.01,2013-09-16 12:10:00,
2013-09-16 05:15:00,61.0,58.0,29.82,SSE,164,3.0,9.0,90,0.00,,---,0.00,VWS V14.01,2013-09-16 12:15:00,
2013-09-16 05:20:00,60.9,58.0,29.82,SSE,164,2.0,9.0,90,0.00,,---,0.00,VWS V14.01,2013-09-16 12:20:00,
2013-09-16 05:25:00,60.9,58.0,29.83,SSE,164,2.0,9.0,90,0.00,,---,0.00,VWS V14.01,2013-09-16 12:25:00,
2013-09-16 05:30:00,60.8,57.8,29.82,SSE,164,5.0,9.0,90,0.00,,---,0.00,VWS V14.01,2013-09-16 12:30:00,
2013-09-16 05:35:00,60.7,57.8,29.82,SSE,164,0.0,9.0,90,0.00,,---,0.00,VWS V14.01,2013-09-16 12:35:00,
2013-09-16 05:40:00,60.7,57.8,29.82,SSE,164,0.0,9.0,90,0.00,,---,0.00,VWS V14.01,2013-09-16 12:40:00,
2013-09-16 05:45:00,60.6,58.0,29.82,SSE,164,3.0,9.0,91,0.00,,---,0.00,VWS V14.01,2013-09-16 12:45:00,
2013-09-16 05:50:00,60.5,57.9,29.83,SSE,164,3.0,9.0,91,0.00,,---,0.00,VWS V14.01,2013-09-16 12:50:00,
2013-09-16 05:56:00,60.5,57.9,29.82,SSE,164,1.0,9.0,91,0.00,,---,0.00,VWS V14.01,2013-09-16 12:56:00,
2013-09-16 06:00:00,57.9,53.7,29.74,SSE,155,3.0,11.0,86,0.00,,---,0.00,VWS V14.01,2013-09-16 13:00:00,
2013-09-16 06:01:00,60.4,57.8,29.82,SSE,164,4.0,9.0,91,0.00,,---,0.00,VWS V14.01,2013-09-16 13:01:00,
2013-09-16 06:06:00,60.3,57.7,29.83,SSE,164,2.0,5.0,91,0.00,,---,0.00,VWS V14.01,2013-09-16 13:06:00,
2013-09-16 06:11:00,60.3,57.7,29.83,SSE,164,2.0,6.0,91,0.00,,---,0.00,VWS V14.01,2013-09-16 13:11:00,
2013-09-16 06:15:00,60.2,57.6,29.83,SSE,164,0.0,6.0,91,0.00,,---,0.00,VWS V14.01,2013-09-16 13:15:00,
2013-09-16 06:20:00,60.2,57.6,29.83,SSE,164,0.0,7.0,91,0.00,,---,0.00,VWS V14.01,2013-09-16 13:20:00,
2013-09-16 06:25:00,60.1,57.5,29.83,SSE,164,0.0,7.0,91,0.00,,---,0.00,VWS V14.01,2013-09-16 13:25:00,
2013-09-16 06:30:00,60.0,57.4,29.83,SSE,164,0.0,7.0,91,0.00,,---,0.00,VWS V14.01,2013-09-16 13:30:00,
2013-09-16 06:35:00,59.9,57.3,29.83,SSE,164,0.0,7.0,91,0.00,,---,0.00,VWS V14.01,2013-09-16 13:35:00,
2013-09-16 06:40:00,59.9,57.3,29.83,SSE,164,0.0,7.0,91,0.00,,---,0.00,VWS V14.01,2013-09-16 13:40:00,
2013-09-16 06:45:00,59.8,57.2,29.83,SSE,164,3.0,7.0,91,0.00,,---,0.00,VWS V14.01,2013-09-16 13:45:00,
2013-09-16 06:50:00,59.8,57.5,29.84,SSE,164,0.0,7.0,92,0.00,,---,0.00,VWS V14.01,2013-09-16 13:50:00,
2013-09-16 06:55:00,59.8,57.5,29.84,SSE,164,2.0,7.0,92,0.00,,---,0.00,VWS V14.01,2013-09-16 13:55:00,
2013-09-16 07:00:00,59.8,57.5,29.84,SSE,164,3.0,7.0,92,0.00,,---,0.00,VWS V14.01,2013-09-16 14:00:00,
2013-09-16 07:05:00,59.8,57.5,29.84,SSE,164,0.0,7.0,92,0.00,,---,0.00,VWS V14.01,2013-09-16 14:05:00,
2013-09-16 07:10:00,59.9,57.6,29.84,SSE,164,2.0,7.0,92,0.00,,---,0.00,VWS V14.01,2013-09-16 14:10:00,
2013-09-16 07:15:00,60.0,57.7,29.84,SSE,164,4.0,7.0,92,0.00,,---,0.00,VWS V14.01,2013-09-16 14:15:00,
2013-09-16 07:20:00,60.1,57.8,29.84,SSE,164,0.0,7.0,92,0.00,,---,0.00,VWS V14.01,2013-09-16 14:20:00,
2013-09-16 07:25:00,60.3,58.0,29.84,SSE,164,0.0,7.0,92,0.00,,---,0.00,VWS V14.01,2013-09-16 14:25:00,
2013-09-16 07:30:00,60.5,58.2,29.84,SSE,164,5.0,7.0,92,0.00,,---,0.00,VWS V14.01,2013-09-16 14:30:00,
2013-09-16 07:35:00,60.7,58.4,29.84,SSE,164,2.0,7.0,92,0.00,,---,0.00,VWS V14.01,2013-09-16 14:35:00,
2013-09-16 07:40:00,60.9,58.6,29.84,SSE,164,2.0,8.0,92,0.00,,---,0.00,VWS V14.01,2013-09-16 14:40:00,
2013-09-16 07:45:00,61.1,58.5,29.84,SSE,164,4.0,8.0,91,0.00,,---,0.00,VWS V14.01,2013-09-16 14:45:00,
2013-09-16 07:50:00,61.3,58.7,29.85,SSE,164,4.0,8.0,91,0.00,,---,0.00,VWS V14.01,2013-09-16 14:50:00,
2013-09-16 07:55:00,61.6,59.0,29.85,SSE,163,6.0,9.0,91,0.00,,---,0.00,VWS V14.01,2013-09-16 14:55:00,
2013-09-16 08:00:00,61.8,58.8,29.85,SSE,163,4.0,9.0,90,0.00,,---,0.00,VWS V14.01,2013-09-16 15:00:00,
2013-09-16 08:05:00,62.1,59.1,29.85,SSE,163,2.0,6.0,90,0.00,,---,0.00,VWS V14.01,2013-09-16 15:05:00,
2013-09-16 08:10:00,62.4,59.1,29.85,SSE,163,6.0,7.0,89,0.00,,---,0.00,VWS V14.01,2013-09-16 15:10:00,
2013-09-16 08:15:00,62.6,59.3,29.85,SSE,163,3.0,7.0,89,0.00,,---,0.00,VWS V14.01,2013-09-16 15:15:00,
2013-09-16 08:20:00,62.8,59.2,29.85,SSE,163,5.0,7.0,88,0.00,,---,0.00,VWS V14.01,2013-09-16 15:20:00,
2013-09-16 08:25:00,63.2,59.6,29.85,SSE,163,3.0,7.0,88,0.00,,---,0.00,VWS V14.01,2013-09-16 15:25:00,
2013-09-16 08:30:00,63.3,59.4,29.85,SSE,163,2.0,7.0,87,0.00,,---,0.00,VWS V14.01,2013-09-16 15:30:00,
2013-09-16 08:35:00,63.6,59.7,29.86,SSE,163,0.0,7.0,87,0.00,,---,0.00,VWS V14.01,2013-09-16 15:35:00,
2013-09-16 08:40:00,63.9,60.0,29.86,SSE,163,0.0,7.0,87,0.00,,---,0.00,VWS V14.01,2013-09-16 15:40:00,
2013-09-16 08:45:00,64.4,60.1,29.86,SSE,163,0.0,7.0,86,0.00,,---,0.00,VWS V14.01,2013-09-16 15:45:00,
2013-09-16 08:50:00,64.8,60.2,29.86,SSE,163,1.0,7.0,85,0.00,,---,0.00,VWS V14.01,2013-09-16 15:50:00,
2013-09-16 08:55:00,65.3,60.3,29.86,SSE,163,2.0,7.0,84,0.00,,---,0.00,VWS V14.01,2013-09-16 15:55:00,
2013-09-16 09:00:00,65.7,60.4,29.86,SSE,163,0.0,7.0,83,0.00,,---,0.00,VWS V14.01,2013-09-16 16:00:00,
2013-09-16 09:05:00,66.0,60.3,29.86,SSE,163,0.0,6.0,82,0.00,,---,0.00,VWS V14.01,2013-09-16 16:05:00,
2013-09-16 09:10:00,66.4,60.7,29.86,SSE,163,3.0,6.0,82,0.00,,---,0.00,VWS V14.01,2013-09-16 16:10:00,
2013-09-16 09:15:00,66.9,60.9,29.86,SSE,163,2.0,6.0,81,0.00,,---,0.00,VWS V14.01,2013-09-16 16:15:00,
2013-09-16 09:20:00,67.2,60.8,29.86,SSE,163,0.0,6.0,80,0.00,,---,0.00,VWS V14.01,2013-09-16 16:20:00,
2013-09-16 09:25:00,67.5,60.8,29.86,SSE,163,0.0,6.0,79,0.00,,---,0.00,VWS V14.01,2013-09-16 16:25:00,
2013-09-16 09:30:00,67.9,60.8,29.86,SSE,163,2.0,6.0,78,0.00,,---,0.00,VWS V14.01,2013-09-16 16:30:00,
2013-09-16 09:35:00,68.3,61.2,29.86,SSE,163,3.0,6.0,78,0.00,,---,0.00,VWS V14.01,2013-09-16 16:35:00,
2013-09-16 09:40:00,68.6,61.1,29.86,SSE,163,0.0,6.0,77,0.00,,---,0.00,VWS V14.01,2013-09-16 16:40:00,
2013-09-16 09:45:00,69.1,61.2,29.86,SSE,163,0.0,6.0,76,0.00,,---,0.00,VWS V14.01,2013-09-16 16:45:00,
2013-09-16 09:50:00,69.6,61.3,29.86,SSE,163,0.0,6.0,75,0.00,,---,0.00,VWS V14.01,2013-09-16 16:50:00,
2013-09-16 09:55:00,69.9,61.6,29.86,SSE,163,2.0,6.0,75,0.00,,---,0.00,VWS V14.01,2013-09-16 16:55:00,
2013-09-16 10:00:00,67.4,57.3,29.81,SSE,166,5.0,12.0,70,0.00,,---,0.00,VWS V14.01,2013-09-16 17:00:00,
2013-09-16 10:01:00,70.2,61.5,29.87,SSE,163,0.0,6.0,74,0.00,,---,0.00,VWS V14.01,2013-09-16 17:01:00,
2013-09-16 10:06:00,70.6,61.5,29.86,SSE,163,0.0,1.0,73,0.00,,---,0.00,VWS V14.01,2013-09-16 17:06:00,
2013-09-16 10:11:00,70.8,61.3,29.87,SSE,163,0.0,1.0,72,0.00,,---,0.00,VWS V14.01,2013-09-16 17:11:00,
2013-09-16 10:16:00,70.9,61.0,29.87,SSE,163,0.0,1.0,71,0.00,,---,0.00,VWS V14.01,2013-09-16 17:16:00,
2013-09-16 10:21:00,71.1,61.6,29.87,SSE,163,0.0,1.0,72,0.00,,---,0.00,VWS V14.01,2013-09-16 17:21:00,
2013-09-16 10:26:00,71.3,61.4,29.86,SSE,163,0.0,2.0,71,0.00,,---,0.00,VWS V14.01,2013-09-16 17:26:00,
2013-09-16 10:31:00,71.6,61.7,29.86,SSE,163,0.0,2.0,71,0.00,,---,0.00,VWS V14.01,2013-09-16 17:31:00,
2013-09-16 10:35:00,72.1,61.8,29.86,SSE,163,0.0,2.0,70,0.00,,---,0.00,VWS V14.01,2013-09-16 17:35:00,
2013-09-16 10:40:00,72.2,61.5,29.86,SSE,163,0.0,2.0,69,0.00,,---,0.00,VWS V14.01,2013-09-16 17:40:00,
2013-09-16 10:45:00,72.3,61.6,29.86,SSE,163,0.0,2.0,69,0.00,,---,0.00,VWS V14.01,2013-09-16 17:45:00,
2013-09-16 10:50:00,72.7,61.5,29.86,SSE,163,0.0,2.0,68,0.00,,---,0.00,VWS V14.01,2013-09-16 17:50:00,
2013-09-16 10:55:00,73.3,62.1,29.86,SSE,163,0.0,5.0,68,0.00,,---,0.00,VWS V14.01,2013-09-16 17:55:00,
2013-09-16 11:00:00,73.9,61.8,29.86,SSE,163,2.0,5.0,66,0.00,,---,0.00,VWS V14.01,2013-09-16 18:00:00,
2013-09-16 11:05:00,73.6,61.5,29.86,SSE,163,0.0,3.0,66,0.00,,---,0.00,VWS V14.01,2013-09-16 18:05:00,
2013-09-16 11:10:00,74.2,62.1,29.86,SSE,163,0.0,3.0,66,0.00,,---,0.00,VWS V14.01,2013-09-16 18:10:00,
2013-09-16 11:15:00,74.5,62.0,29.86,SSE,163,0.0,4.0,65,0.00,,---,0.00,VWS V14.01,2013-09-16 18:15:00,
2013-09-16 11:20:00,74.3,61.3,29.86,SSE,163,0.0,4.0,64,0.00,,---,0.00,VWS V14.01,2013-09-16 18:20:00,
2013-09-16 11:25:00,74.5,62.0,29.86,SSE,163,0.0,4.0,65,0.00,,---,0.00,VWS V14.01,2013-09-16 18:25:00,
2013-09-16 11:30:00,75.1,62.5,29.86,SSE,163,0.0,4.0,65,0.00,,---,0.00,VWS V14.01,2013-09-16 18:30:00,
2013-09-16 11:35:00,75.8,62.3,29.86,SSE,163,0.0,4.0,63,0.00,,---,0.00,VWS V14.01,2013-09-16 18:35:00,
2013-09-16 11:40:00,76.1,62.2,29.86,SSE,163,0.0,4.0,62,0.00,,---,0.00,VWS V14.01,2013-09-16 18:40:00,
2013-09-16 11:45:00,75.9,62.0,29.86,SSE,163,0.0,4.0,62,0.00,,---,0.00,VWS V14.01,2013-09-16 18:45:00,
2013-09-16 11:50:00,76.1,62.2,29.85,SSE,163,0.0,4.0,62,0.00,,---,0.00,VWS V14.01,2013-09-16 18:50:00,
2013-09-16 11:55:00,76.8,63.3,29.85,SSE,163,0.0,4.0,63,0.00,,---,0.00,VWS V14.01,2013-09-16 18:55:00,
2013-09-16 12:00:00,77.2,62.7,29.85,SSE,163,0.0,4.0,61,0.00,,---,0.00,VWS V14.01,2013-09-16 19:00:00,
2013-09-16 12:05:00,77.4,62.4,29.85,SSE,163,0.0,2.0,60,0.00,,---,0.00,VWS V14.01,2013-09-16 19:05:00,
2013-09-16 12:10:00,77.8,63.3,29.85,SSE,163,0.0,2.0,61,0.00,,---,0.00,VWS V14.01,2013-09-16 19:10:00,
2013-09-16 12:15:00,77.9,62.4,29.85,SSE,163,0.0,2.0,59,0.00,,---,0.00,VWS V14.01,2013-09-16 19:15:00,
2013-09-16 12:20:00,78.1,63.1,29.85,SSE,163,0.0,3.0,60,0.00,,---,0.00,VWS V14.01,2013-09-16 19:20:00,
2013-09-16 12:25:00,78.6,62.6,29.85,SSE,163,0.0,3.0,58,0.00,,---,0.00,VWS V14.01,2013-09-16 19:25:00,
2013-09-16 12:30:00,79.0,63.0,29.84,SSE,163,0.0,3.0,58,0.00,,---,0.00,VWS V14.01,2013-09-16 19:30:00,
2013-09-16 12:35:00,79.7,62.6,29.85,SSE,164,0.0,3.0,56,0.00,,---,0.00,VWS V14.01,2013-09-16 19:35:00,
2013-09-16 12:40:00,79.4,62.9,29.84,SSE,163,0.0,3.0,57,0.00,,---,0.00,VWS V14.01,2013-09-16 19:40:00,
2013-09-16 12:45:00,79.8,63.2,29.84,SSE,163,0.0,3.0,57,0.00,,---,0.00,VWS V14.01,2013-09-16 19:45:00,
2013-09-16 12:50:00,81.0,62.8,29.84,SSE,163,0.0,4.0,54,0.00,,---,0.00,VWS V14.01,2013-09-16 19:50:00,
2013-09-16 12:55:00,81.2,62.5,29.84,SSE,163,0.0,4.0,53,0.00,,---,0.00,VWS V14.01,2013-09-16 19:55:00,
2013-09-16 13:00:00,81.3,63.1,29.84,SSE,163,0.0,4.0,54,0.00,,---,0.00,VWS V14.01,2013-09-16 20:00:00,
2013-09-16 13:05:00,81.6,63.4,29.84,SSE,163,4.0,4.0,54,0.00,,---,0.00,VWS V14.01,2013-09-16 20:05:00,
2013-09-16 13:10:00,81.9,63.6,29.83,SSE,164,0.0,6.0,54,0.00,,---,0.00,VWS V14.01,2013-09-16 20:10:00,
2013-09-16 13:15:00,82.0,63.7,29.83,SSE,163,1.0,6.0,54,0.00,,---,0.00,VWS V14.01,2013-09-16 20:15:00,
2013-09-16 13:20:00,82.3,63.5,29.83,SSE,163,0.0,6.0,53,0.00,,---,0.00,VWS V14.01,2013-09-16 20:20:00,
2013-09-16 13:25:00,82.2,63.9,29.83,SSE,163,0.0,6.0,54,0.00,,---,0.00,VWS V14.01,2013-09-16 20:25:00,
2013-09-16 13:30:00,82.5,64.2,29.82,SSE,163,2.0,6.0,54,0.00,,---,0.00,VWS V14.01,2013-09-16 20:30:00,
2013-09-16 13:35:00,82.7,63.8,29.82,SSE,163,0.0,6.0,53,0.00,,---,0.00,VWS V14.01,2013-09-16 20:35:00,
2013-09-16 13:40:00,82.6,63.8,29.82,SSE,163,0.0,6.0,53,0.00,,---,0.00,VWS V14.01,2013-09-16 20:40:00,
2013-09-16 13:45:00,82.7,64.4,29.82,SSE,163,2.0,7.0,54,0.00,,---,0.00,VWS V14.01,2013-09-16 20:45:00,
2013-09-16 13:50:00,83.0,64.1,29.82,SSE,163,0.0,7.0,53,0.00,,---,0.00,VWS V14.01,2013-09-16 20:50:00,
2013-09-16 13:55:00,83.5,64.6,29.81,SSE,163,0.0,7.0,53,0.00,,---,0.00,VWS V14.01,2013-09-16 20:55:00,
2013-09-16 14:00:00,83.4,64.0,29.81,SSE,163,0.0,7.0,52,0.00,,---,0.00,VWS V14.01,2013-09-16 21:00:00,
2013-09-16 14:05:00,84.1,64.6,29.81,SSE,163,0.0,4.0,52,0.00,,---,0.00,VWS V14.01,2013-09-16 21:05:00,
2013-09-16 14:10:00,84.5,65.0,29.80,SSE,163,0.0,4.0,52,0.00,,---,0.00,VWS V14.01,2013-09-16 21:10:00,
2013-09-16 14:15:00,85.0,64.3,29.80,SSE,163,0.0,4.0,50,0.00,,---,0.00,VWS V14.01,2013-09-16 21:15:00,
2013-09-16 14:20:00,84.8,63.0,29.80,SSE,163,0.0,7.0,48,0.00,,---,0.00,VWS V14.01,2013-09-16 21:20:00,
2013-09-16 14:25:00,84.5,64.4,29.80,SSE,163,2.0,7.0,51,0.00,,---,0.00,VWS V14.01,2013-09-16 21:25:00,
2013-09-16 14:30:00,84.8,63.5,29.79,SSE,164,0.0,7.0,49,0.00,,---,0.00,VWS V14.01,2013-09-16 21:30:00,
2013-09-16 14:35:00,85.2,62.7,29.79,SSE,163,0.0,7.0,47,0.00,,---,0.00,VWS V14.01,2013-09-16 21:35:00,
2013-09-16 14:40:00,85.1,63.8,29.79,SSE,163,0.0,7.0,49,0.00,,---,0.00,VWS V14.01,2013-09-16 21:40:00,
2013-09-16 14:45:00,85.2,63.9,29.79,SSE,164,0.0,7.0,49,0.00,,---,0.00,VWS V14.01,2013-09-16 21:45:00,
2013-09-16 14:50:00,85.7,63.8,29.78,SSE,164,0.0,7.0,48,0.00,,---,0.00,VWS V14.01,2013-09-16 21:50:00,
2013-09-16 14:55:00,85.8,62.0,29.78,SSE,163,0.0,7.0,45,0.00,,---,0.00,VWS V14.01,2013-09-16 21:55:00,
2013-09-16 15:00:00,86.6,58.7,29.78,SSE,163,3.0,7.0,39,0.00,,---,0.00,VWS V14.01,2013-09-16 22:00:00,
2013-09-16 15:05:00,87.4,58.7,29.78,SSE,164,0.0,5.0,38,0.00,,---,0.00,VWS V14.01,2013-09-16 22:05:00,
2013-09-16 15:10:00,87.1,57.7,29.78,SSE,163,3.0,5.0,37,0.00,,---,0.00,VWS V14.01,2013-09-16 22:10:00,
2013-09-16 15:15:00,87.1,59.2,29.77,SSE,163,0.0,5.0,39,0.00,,---,0.00,VWS V14.01,2013-09-16 22:15:00,
2013-09-16 15:20:00,87.4,58.0,29.77,SSE,163,0.0,5.0,37,0.00,,---,0.00,VWS V14.01,2013-09-16 22:20:00,
2013-09-16 15:25:00,87.8,59.1,29.77,SSE,164,0.0,5.0,38,0.00,,---,0.00,VWS V14.01,2013-09-16 22:25:00,
2013-09-16 15:30:00,88.1,57.8,29.77,SSE,163,0.0,5.0,36,0.00,,---,0.00,VWS V14.01,2013-09-16 22:30:00,
2013-09-16 15:35:00,88.4,57.3,29.76,SSE,164,0.0,6.0,35,0.00,,---,0.00,VWS V14.01,2013-09-16 22:35:00,
2013-09-16 15:40:00,88.2,58.7,29.76,SSE,163,0.0,6.0,37,0.00,,---,0.00,VWS V14.01,2013-09-16 22:40:00,
2013-09-16 15:45:00,87.9,56.9,29.76,SSE,163,3.0,6.0,35,0.00,,---,0.00,VWS V14.01,2013-09-16 22:45:00,
2013-09-16 15:50:00,87.5,56.5,29.76,SSE,163,2.0,6.0,35,0.00,,---,0.00,VWS V14.01,2013-09-16 22:50:00,
2013-09-16 15:55:00,87.7,57.5,29.76,SSE,164,0.0,6.0,36,0.00,,---,0.00,VWS V14.01,2013-09-16 22:55:00,
2013-09-16 16:00:00,87.9,56.1,29.75,SSE,164,0.0,6.0,34,0.00,,---,0.00,VWS V14.01,2013-09-16 23:00:00,
2013-09-16 16:05:00,87.9,56.9,29.75,SSE,163,0.0,4.0,35,0.00,,---,0.00,VWS V14.01,2013-09-16 23:05:00,
2013-09-16 16:10:00,88.1,57.8,29.75,SSE,163,0.0,4.0,36,0.00,,---,0.00,VWS V14.01,2013-09-16 23:10:00,
2013-09-16 16:15:00,88.7,58.3,29.75,SSE,163,0.0,4.0,36,0.00,,---,0.00,VWS V14.01,2013-09-16 23:15:00,
2013-09-16 16:20:00,89.0,58.6,29.75,SSE,164,4.0,6.0,36,0.00,,---,0.00,VWS V14.01,2013-09-16 23:20:00,
2013-09-16 16:25:00,88.9,59.3,29.75,SSE,164,0.0,7.0,37,0.00,,---,0.00,VWS V14.01,2013-09-16 23:25:00,
2013-09-16 16:30:00,88.6,58.2,29.75,SSE,164,0.0,7.0,36,0.00,,---,0.00,VWS V14.01,2013-09-16 23:30:00,
2013-09-16 16:35:00,88.5,58.2,29.74,SSE,163,0.0,7.0,36,0.00,,---,0.00,VWS V14.01,2013-09-16 23:35:00,
2013-09-16 16:40:00,88.8,59.2,29.74,SSE,163,4.0,7.0,37,0.00,,---,0.00,VWS V14.01,2013-09-16 23:40:00,
2013-09-16 16:45:00,88.9,58.5,29.74,SSE,164,0.0,7.0,36,0.00,,---,0.00,VWS V14.01,2013-09-16 23:45:00,
2013-09-16 16:50:00,88.6,59.0,29.74,SSE,164,1.0,7.0,37,0.00,,---,0.00,VWS V14.01,2013-09-16 23:50:00,
2013-09-16 16:55:00,88.4,58.1,29.74,SSE,163,0.0,7.0,36,0.00,,---,0.00,VWS V14.01,2013-09-16 23:55:00,
2013-09-16 17:00:00,88.4,60.3,29.74,SSE,163,0.0,7.0,39,0.00,,---,0.00,VWS V14.01,2013-09-17 00:00:00,
2013-09-16 17:05:00,88.7,59.1,29.74,SSE,164,0.0,1.0,37,0.00,,---,0.00,VWS V14.01,2013-09-17 00:05:00,
2013-09-16 17:10:00,89.3,58.9,29.74,SSE,164,0.0,1.0,36,0.00,,---,0.00,VWS V14.01,2013-09-17 00:10:00,
2013-09-16 17:15:00,89.6,58.3,29.74,SSE,163,0.0,2.0,35,0.00,,---,0.00,VWS V14.01,2013-09-17 00:15:00,
2013-09-16 17:20:00,89.6,58.3,29.74,SSE,163,0.0,3.0,35,0.00,,---,0.00,VWS V14.01,2013-09-17 00:20:00,
2013-09-16 17:25:00,89.6,58.3,29.73,SSE,164,0.0,3.0,35,0.00,,---,0.00,VWS V14.01,2013-09-17 00:25:00,
2013-09-16 17:30:00,89.6,58.3,29.73,SSE,164,0.0,3.0,35,0.00,,---,0.00,VWS V14.01,2013-09-17 00:30:00,
2013-09-16 17:35:00,89.8,59.3,29.73,SSE,163,0.0,3.0,36,0.00,,---,0.00,VWS V14.01,2013-09-17 00:35:00,
2013-09-16 17:40:00,90.2,58.9,29.73,SSE,163,0.0,3.0,35,0.00,,---,0.00,VWS V14.01,2013-09-17 00:40:00,
2013-09-16 17:45:00,90.1,58.8,29.73,SSE,163,0.0,7.0,35,0.00,,---,0.00,VWS V14.01,2013-09-17 00:45:00,
2013-09-16 17:50:00,90.1,59.6,29.73,SSE,163,0.0,7.0,36,0.00,,---,0.00,VWS V14.01,2013-09-17 00:50:00,
2013-09-16 17:55:00,90.0,58.7,29.73,SSE,164,1.0,7.0,35,0.00,,---,0.00,VWS V14.01,2013-09-17 00:55:00,
2013-09-16 18:00:00,89.9,59.4,29.73,SSE,164,0.0,7.0,36,0.00,,---,0.00,VWS V14.01,2013-09-17 01:00:00,
2013-09-16 18:05:00,89.7,60.0,29.72,SSE,163,0.0,1.0,37,0.00,,---,0.00,VWS V14.01,2013-09-17 01:05:00,
2013-09-16 18:10:00,89.5,59.8,29.72,SSE,163,0.0,6.0,37,0.00,,---,0.00,VWS V14.01,2013-09-17 01:10:00,
2013-09-16 18:15:00,89.3,60.4,29.72,SSE,163,0.0,6.0,38,0.00,,---,0.00,VWS V14.01,2013-09-17 01:15:00,
2013-09-16 18:20:00,89.1,60.2,29.72,SSE,163,0.0,6.0,38,0.00,,---,0.00,VWS V14.01,2013-09-17 01:20:00,
2013-09-16 18:25:00,88.9,59.3,29.72,SSE,163,0.0,6.0,37,0.00,,---,0.00,VWS V14.01,2013-09-17 01:25:00,
2013-09-16 18:30:00,88.4,58.1,29.72,SSE,164,2.0,6.0,36,0.00,,---,0.00,VWS V14.01,2013-09-17 01:30:00,
2013-09-16 18:35:00,87.7,57.5,29.72,SSE,163,1.0,7.0,36,0.00,,---,0.00,VWS V14.01,2013-09-17 01:35:00,
2013-09-16 18:40:00,87.0,58.3,29.71,SSE,163,1.0,7.0,38,0.00,,---,0.00,VWS V14.01,2013-09-17 01:40:00,
2013-09-16 18:45:00,86.2,58.4,29.71,SSE,163,4.0,8.0,39,0.00,,---,0.00,VWS V14.01,2013-09-17 01:45:00,
2013-09-16 18:50:00,85.5,58.5,29.71,SSE,163,6.0,10.0,40,0.00,,---,0.00,VWS V14.01,2013-09-17 01:50:00,
2013-09-16 18:55:00,85.0,58.7,29.71,SSE,163,2.0,10.0,41,0.00,,---,0.00,VWS V14.01,2013-09-17 01:55:00,
2013-09-16 19:00:00,84.4,60.1,29.71,South,170,4.0,11.0,44,0.00,,---,0.00,VWS V14.01,2013-09-17 02:00:00,
2013-09-16 19:05:00,83.6,60.0,29.71,South,175,1.0,10.0,45,0.00,,---,0.00,VWS V14.01,2013-09-17 02:05:00,
2013-09-16 19:10:00,82.9,60.0,29.71,South,175,3.0,10.0,46,0.00,,---,0.00,VWS V14.01,2013-09-17 02:10:00,
2013-09-16 19:15:00,82.3,60.1,29.71,South,175,2.0,10.0,47,0.00,,---,0.00,VWS V14.01,2013-09-17 02:15:00,
2013-09-16 19:20:00,81.8,59.6,29.71,South,175,2.0,10.0,47,0.00,,---,0.00,VWS V14.01,2013-09-17 02:20:00,
2013-09-16 19:25:00,81.2,59.7,29.71,South,176,2.0,11.0,48,0.00,,---,0.00,VWS V14.01,2013-09-17 02:25:00,
2013-09-16 19:30:00,80.7,59.2,29.71,South,178,2.0,11.0,48,0.00,,---,0.00,VWS V14.01,2013-09-17 02:30:00,
2013-09-16 19:35:00,80.2,59.3,29.71,South,178,3.0,11.0,49,0.00,,---,0.00,VWS V14.01,2013-09-17 02:35:00,
2013-09-16 19:40:00,79.8,59.5,29.71,South,178,5.0,11.0,50,0.00,,---,0.00,VWS V14.01,2013-09-17 02:40:00,
2013-09-16 19:45:00,79.3,59.1,29.71,South,178,4.0,11.0,50,0.00,,---,0.00,VWS V14.01,2013-09-17 02:45:00,
2013-09-16 19:50:00,78.8,58.6,29.72,South,179,4.0,11.0,50,0.00,,---,0.00,VWS V14.01,2013-09-17 02:50:00,
2013-09-16 19:55:00,78.4,58.8,29.72,South,179,5.0,11.0,51,0.00,,---,0.00,VWS V14.01,2013-09-17 02:55:00,
2013-09-16 20:00:00,78.0,58.4,29.72,South,179,4.0,11.0,51,0.00,,---,0.00,VWS V14.01,2013-09-17 03:00:00,
2013-09-16 20:05:00,77.6,58.1,29.72,South,182,2.0,11.0,51,0.00,,---,0.00,VWS V14.01,2013-09-17 03:05:00,
2013-09-16 20:10:00,77.2,58.2,29.72,South,182,2.0,11.0,52,0.00,,---,0.00,VWS V14.01,2013-09-17 03:10:00,
2013-09-16 20:15:00,76.8,57.9,29.72,South,182,6.0,11.0,52,0.00,,---,0.00,VWS V14.01,2013-09-17 03:15:00,
2013-09-16 20:20:00,76.4,58.0,29.72,South,183,0.0,11.0,53,0.00,,---,0.00,VWS V14.01,2013-09-17 03:20:00,
2013-09-16 20:25:00,76.0,58.2,29.72,South,183,4.0,11.0,54,0.00,,---,0.00,VWS V14.01,2013-09-17 03:25:00,
2013-09-16 20:30:00,75.6,57.8,29.72,South,183,3.0,11.0,54,0.00,,---,0.00,VWS V14.01,2013-09-17 03:30:00,
2013-09-16 20:35:00,75.2,57.9,29.73,South,184,0.0,11.0,55,0.00,,---,0.00,VWS V14.01,2013-09-17 03:35:00,
2013-09-16 20:40:00,74.9,57.7,29.73,South,184,7.0,11.0,55,0.00,,---,0.00,VWS V14.01,2013-09-17 03:40:00,
2013-09-16 20:45:00,74.5,57.8,29.73,South,184,0.0,11.0,56,0.00,,---,0.00,VWS V14.01,2013-09-17 03:45:00,
2013-09-16 20:50:00,74.1,57.4,29.73,South,184,4.0,11.0,56,0.00,,---,0.00,VWS V14.01,2013-09-17 03:50:00,
2013-09-16 20:55:00,73.7,57.5,29.73,South,184,2.0,11.0,57,0.00,,---,0.00,VWS V14.01,2013-09-17 03:55:00,
2013-09-16 21:00:00,73.4,57.3,29.73,South,184,2.0,11.0,57,0.00,,---,0.00,VWS V14.01,2013-09-17 04:00:00,
2013-09-16 21:01:00,73.3,57.2,29.73,South,184,0.0,11.0,57,0.00,,---,0.00,VWS V14.01,2013-09-17 04:01:00,
2013-09-16 21:06:00,73.0,57.4,29.73,South,184,2.0,7.0,58,0.00,,---,0.00,VWS V14.01,2013-09-17 04:06:00,
2013-09-16 21:11:00,72.6,57.0,29.74,South,183,7.0,10.0,58,0.00,,---,0.00,VWS V14.01,2013-09-17 04:11:00,
2013-09-16 21:16:00,72.3,57.2,29.74,South,183,0.0,11.0,59,0.00,,---,0.00,VWS V14.01,2013-09-17 04:16:00,
2013-09-16 21:21:00,72.0,56.9,29.74,South,183,3.0,11.0,59,0.00,,---,0.00,VWS V14.01,2013-09-17 04:21:00,
2013-09-16 21:26:00,71.6,57.0,29.74,South,182,5.0,11.0,60,0.00,,---,0.00,VWS V14.01,2013-09-17 04:26:00,
2013-09-16 21:31:00,71.3,56.7,29.74,South,182,11.0,11.0,60,0.00,,---,0.00,VWS V14.01,2013-09-17 04:31:00,
2013-09-16 21:36:00,71.0,56.9,29.74,South,183,3.0,12.0,61,0.00,,---,0.00,VWS V14.01,2013-09-17 04:36:00,
2013-09-16 21:41:00,70.6,56.5,29.74,South,183,2.0,12.0,61,0.00,,---,0.00,VWS V14.01,2013-09-17 04:41:00,
2013-09-16 21:46:00,70.4,56.8,29.74,South,182,2.0,12.0,62,0.00,,---,0.00,VWS V14.01,2013-09-17 04:46:00,
2013-09-16 21:51:00,70.1,56.5,29.74,South,182,3.0,12.0,62,0.00,,---,0.00,VWS V14.01,2013-09-17 04:51:00,
2013-09-16 21:56:00,69.9,56.8,29.75,South,182,6.0,12.0,63,0.00,,---,0.00,VWS V14.01,2013-09-17 04:56:00,
2013-09-16 22:00:00,68.1,58.3,29.78,South,181,0.0,10.0,71,0.00,,---,0.00,VWS V14.01,2013-09-17 05:00:00,
2013-09-16 22:01:00,69.7,56.6,29.75,South,182,0.0,4.0,63,0.00,,---,0.00,VWS V14.01,2013-09-17 05:01:00,
2013-09-16 22:06:00,69.5,56.8,29.75,South,182,0.0,6.0,64,0.00,,---,0.00,VWS V14.01,2013-09-17 05:06:00,
2013-09-16 22:11:00,69.2,56.5,29.75,South,181,6.0,11.0,64,0.00,,---,0.00,VWS V14.01,2013-09-17 05:11:00,
2013-09-16 22:16:00,69.0,56.8,29.74,South,180,0.0,11.0,65,0.00,,---,0.00,VWS V14.01,2013-09-17 05:16:00,
2013-09-16 22:21:00,68.8,56.6,29.74,South,180,1.0,11.0,65,0.00,,---,0.00,VWS V14.01,2013-09-17 05:21:00,
2013-09-16 22:26:00,68.6,56.8,29.74,South,180,2.0,11.0,66,0.00,,---,0.00,VWS V14.01,2013-09-17 05:26:00,
2013-09-16 22:31:00,68.4,56.6,29.75,South,180,0.0,11.0,66,0.00,,---,0.00,VWS V14.01,2013-09-17 05:31:00,
2013-09-16 22:36:00,68.2,56.4,29.75,South,180,3.0,11.0,66,0.00,,---,0.00,VWS V14.01,2013-09-17 05:36:00,
2013-09-16 22:41:00,68.0,56.7,29.75,South,180,4.0,11.0,67,0.00,,---,0.00,VWS V14.01,2013-09-17 05:41:00,
2013-09-16 22:46:00,67.9,56.5,29.75,South,180,4.0,11.0,67,0.00,,---,0.00,VWS V14.01,2013-09-17 05:46:00,
2013-09-16 22:51:00,67.8,56.0,29.75,South,174,5.0,13.0,66,0.00,,---,0.00,VWS V14.01,2013-09-17 05:51:00,
2013-09-16 22:56:00,67.7,56.0,29.75,South,174,0.0,13.0,66,0.00,,---,0.00,VWS V14.01,2013-09-17 05:56:00,
2013-09-16 23:00:00,65.9,58.5,29.79,South,179,3.0,10.0,77,0.00,,---,0.00,VWS V14.01,2013-09-17 06:00:00,
2013-09-16 23:01:00,67.6,55.8,29.75,South,174,4.0,13.0,66,0.00,,---,0.00,VWS V14.01,2013-09-17 06:01:00,
2013-09-16 23:06:00,67.5,55.8,29.75,South,173,3.0,11.0,66,0.00,,---,0.00,VWS V14.01,2013-09-17 06:06:00,
2013-09-16 23:11:00,67.4,55.7,29.75,South,173,5.0,11.0,66,0.00,,---,0.00,VWS V14.01,2013-09-17 06:11:00,
2013-09-16 23:16:00,67.3,55.6,29.75,South,173,6.0,11.0,66,0.00,,---,0.00,VWS V14.01,2013-09-17 06:16:00,
2013-09-16 23:21:00,67.2,55.5,29.75,South,173,6.0,11.0,66,0.00,,---,0.00,VWS V14.01,2013-09-17 06:21:00,
2013-09-16 23:26:00,67.1,55.8,29.76,South,173,3.0,11.0,67,0.00,,---,0.00,VWS V14.01,2013-09-17 06:26:00,
2013-09-16 23:31:00,66.9,55.6,29.75,South,173,0.0,11.0,67,0.00,,---,0.00,VWS V14.01,2013-09-17 06:31:00,
2013-09-16 23:36:00,66.8,55.9,29.75,South,173,7.0,11.0,68,0.00,,---,0.00,VWS V14.01,2013-09-17 06:36:00,
2013-09-16 23:41:00,66.7,56.2,29.75,South,173,4.0,11.0,69,0.00,,---,0.00,VWS V14.01,2013-09-17 06:41:00,
2013-09-16 23:46:00,66.6,56.1,29.75,South,173,2.0,11.0,69,0.00,,---,0.00,VWS V14.01,2013-09-17 06:46:00,
2013-09-16 23:51:00,66.5,56.0,29.75,South,171,2.0,12.0,69,0.00,,---,0.00,VWS V14.01,2013-09-17 06:51:00,
2013-09-16 23:56:00,66.4,55.9,29.75,South,171,3.0,12.0,69,0.00,,---,0.00,VWS V14.01,2013-09-17 06:56:00,